Wes Sellars — WDF9302 — position and weather

sailwx.info

Track history (hours):
 
Tides and Currents Weather Stations Pressure Air Temp Water Temp Dewpoint Dewpoint Depression Visibility Wind Speed Wind Dir Waves Ship Positions

Wes Sellars

Owner: Florida Marine, LLC, Mandeville, LA. More information available from US FCC via Universal Licensing System and Coast Guard Vessel Documentation Center.

Last reported at 2016-Jun-01 04:30 UTC. Time now 2016-Jun-01 05:35 UTC.
Position N 29°47' W 095°04'.

Length 27 m.

Type: Towing. MMSI: 367503760.

Date/timePositionNaut miles runAvg speedWind from/ knotsBaromVisibWave heightAir tempDewpointWater temp
2016-Jun-01 04:30N 29°47' W 095°04'2 2.0
2016-Jun-01 03:32N 29°46' W 095°05'0 0.0
2016-Jun-01 02:33N 29°46' W 095°05'1 0.4
2016-Jun-01 00:21N 29°46' W 095°06'2 2.2
2016-May-31 23:34N 29°46' W 095°04'2 0.5
2016-May-31 20:08N 29°46' W 095°06'0 0.7
2016-May-31 19:33N 29°46' W 095°06'0 0.1
2016-May-31 16:31N 29°46' W 095°05'1 0.6
2016-May-31 15:31N 29°46' W 095°06'0 0.1
2016-May-31 12:29N 29°46' W 095°06'0 0.0
2016-May-31 11:09N 29°46' W 095°06'0 0.0
2016-May-31 10:07N 29°46' W 095°06'0 0.0
2016-May-31 09:27N 29°46' W 095°06'0 0.0
2016-May-31 04:08N 29°46' W 095°06'1 0.2
2016-May-30 22:33N 29°45' W 095°06'4 3.9
2016-May-30 21:33N 29°44' W 095°01'0 0.1
2016-May-30 20:33N 29°44' W 095°01'2 2.0
2016-May-30 19:33N 29°44' W 095°04'3 3.1
2016-May-30 18:33N 29°47' W 095°06'0 0.0
2016-May-30 17:33N 29°47' W 095°06'0 0.0
2016-May-30 16:33N 29°47' W 095°06'0 0.0
2016-May-30 15:33N 29°47' W 095°06'0 0.0
2016-May-30 14:33N 29°47' W 095°06'0 0.0
2016-May-30 13:33N 29°47' W 095°06'0 0.0
2016-May-30 12:33N 29°47' W 095°06'0 0.0
2016-May-30 11:33N 29°47' W 095°06'0 0.0
2016-May-30 10:33N 29°47' W 095°06'0 0.0
2016-May-30 09:33N 29°47' W 095°06'0 0.0
2016-May-30 08:33N 29°47' W 095°06'0 0.0
2016-May-30 07:33N 29°47' W 095°06'0 0.0
2016-May-30 06:33N 29°47' W 095°06'0 0.0
2016-May-30 05:30N 29°47' W 095°06'0 0.0
2016-May-30 04:33N 29°47' W 095°06'0 0.0
2016-May-30 03:32N 29°47' W 095°06'0 0.0
2016-May-30 02:33N 29°47' W 095°06'0 0.0
2016-May-30 01:33N 29°47' W 095°06'0 0.3
2016-May-30 00:16N 29°47' W 095°05'1 1.9
2016-May-29 23:31N 29°46' W 095°05'1 1.5
2016-May-29 22:33N 29°47' W 095°06'0 0.2
2016-May-29 21:32N 29°47' W 095°06'1 1.2
2016-May-29 20:33N 29°47' W 095°04'0 0.5
2016-May-29 19:33N 29°47' W 095°05'0 0.0
2016-May-29 18:33N 29°47' W 095°05'0 0.0
2016-May-29 17:33N 29°47' W 095°05'0 0.0
2016-May-29 16:33N 29°47' W 095°05'1 0.7
2016-May-29 15:34N 29°46' W 095°05'0 0.2
2016-May-29 14:33N 29°46' W 095°05'1 1.2
2016-May-29 13:33N 29°47' W 095°04'1 1.2
2016-May-29 12:33N 29°46' W 095°05'1 1.2
2016-May-29 11:33N 29°47' W 095°04'1 1.4
2016-May-29 10:32N 29°47' W 095°06'0 0.0
2016-May-29 09:33N 29°47' W 095°06'0 0.0
2016-May-29 08:31N 29°47' W 095°06'1 0.2
2016-May-29 01:33N 29°47' W 095°05'0 0.1
2016-May-29 00:32N 29°47' W 095°04'1 1.4
2016-May-28 23:32N 29°46' W 095°05'1 1.4
2016-May-28 22:33N 29°47' W 095°06'0 0.0
2016-May-28 19:29N 29°47' W 095°06'0 0.0
2016-May-28 18:30N 29°47' W 095°06'1 1.3
2016-May-28 17:33N 29°47' W 095°04'1 1.1
2016-May-28 16:33N 29°46' W 095°05'1 1.3
2016-May-28 15:32N 29°47' W 095°05'0 0.2
2016-May-28 14:33N 29°47' W 095°06'0 0.0
2016-May-28 13:34N 29°47' W 095°06'0 0.0
2016-May-28 09:03N 29°47' W 095°06'0 0.1
2016-May-28 08:33N 29°47' W 095°06'0 0.0
2016-May-28 07:31N 29°47' W 095°06'2 0.8
2016-May-28 05:32N 29°47' W 095°04'1 0.4
2016-May-28 02:33N 29°47' W 095°05'0 0.5
2016-May-28 01:33N 29°47' W 095°06'0 0.0
2016-May-28 00:33N 29°47' W 095°06'1 1.0
2016-May-27 23:32N 29°47' W 095°05'1 0.5
2016-May-27 22:12N 29°47' W 095°04'1 1.0
2016-May-27 21:29N 29°47' W 095°05'0 0.0
2016-May-27 20:32N 29°47' W 095°05'0 0.0
2016-May-27 19:31N 29°47' W 095°05'1 1.5
2016-May-27 18:33N 29°45' W 095°06'1 0.9
2016-May-27 17:33N 29°45' W 095°06'0 0.0
2016-May-27 16:33N 29°45' W 095°06'0 0.0
2016-May-27 15:33N 29°45' W 095°06'0 0.0
2016-May-27 14:33N 29°45' W 095°06'0 0.0
2016-May-27 13:33N 29°45' W 095°06'0 0.0
2016-May-27 12:33N 29°45' W 095°06'0 0.0
2016-May-27 11:33N 29°45' W 095°06'0 0.0
2016-May-27 10:33N 29°45' W 095°06'0 0.0
2016-May-27 09:33N 29°45' W 095°06'0 0.0
2016-May-27 08:33N 29°45' W 095°06'0 0.0
2016-May-27 07:33N 29°45' W 095°06'0 0.0
2016-May-27 06:33N 29°45' W 095°06'0 0.0
2016-May-27 05:33N 29°45' W 095°06'0 0.0
2016-May-27 04:33N 29°45' W 095°06'0 0.0
2016-May-27 03:33N 29°45' W 095°06'0 0.0
2016-May-27 02:33N 29°45' W 095°06'0 0.0
2016-May-27 01:33N 29°45' W 095°06'2 2.4
2016-May-27 00:33N 29°47' W 095°05'1 0.9
2016-May-26 23:33N 29°47' W 095°04'0 0.0
2016-May-26 22:33N 29°47' W 095°04'2 2.0
2016-May-26 21:33N 29°46' W 095°05'1 0.2
2016-May-26 17:16N 29°46' W 095°06'0 0.0
2016-May-26 16:15N 29°46' W 095°06'2 3.2
2016-May-26 15:32N 29°47' W 095°04'5 4.8
2016-May-26 14:33N 29°44' W 095°08'3 0.1
2016-May-25 10:33N 29°45' W 095°11'6 5.7
2016-May-25 09:30N 29°46' W 095°05'1 0.7
2016-May-25 08:32N 29°47' W 095°04'0 0.0
2016-May-25 07:17N 29°47' W 095°04'1 1.6
2016-May-25 06:32N 29°47' W 095°06'0 0.0
2016-May-24 17:19N 29°47' W 095°06'0 0.1
2016-May-24 16:32N 29°47' W 095°06'0 0.0
2016-May-24 15:33N 29°47' W 095°06'0 0.0
2016-May-24 14:33N 29°47' W 095°06'0 0.0
2016-May-24 13:31N 29°47' W 095°06'0 0.0
2016-May-24 12:33N 29°47' W 095°06'0 0.0
2016-May-24 11:33N 29°47' W 095°06'0 0.0
2016-May-24 10:33N 29°47' W 095°06'0 0.0
2016-May-24 09:32N 29°47' W 095°06'0 0.0
2016-May-24 08:33N 29°47' W 095°06'0 0.0
2016-May-24 07:33N 29°47' W 095°06'0 0.0
2016-May-24 06:33N 29°47' W 095°06'0 0.0
2016-May-24 05:33N 29°47' W 095°06'0 0.0
2016-May-24 04:33N 29°47' W 095°06'0 0.0
2016-May-24 03:34N 29°47' W 095°06'0 0.0
2016-May-24 02:33N 29°47' W 095°06'0 0.0
2016-May-24 01:33N 29°47' W 095°06'0 0.0
2016-May-24 00:33N 29°47' W 095°06'0 0.0
2016-May-23 23:33N 29°47' W 095°06'0 0.0
2016-May-23 22:33N 29°47' W 095°06'0 0.0
2016-May-23 21:33N 29°47' W 095°06'0 0.0
2016-May-23 20:32N 29°47' W 095°06'0 0.0
2016-May-23 19:33N 29°47' W 095°06'0 0.0
2016-May-23 18:33N 29°47' W 095°06'0 0.0
2016-May-23 17:33N 29°47' W 095°06'0 0.0
2016-May-23 16:19N 29°47' W 095°06'0 0.1
2016-May-23 15:33N 29°47' W 095°06'0 0.0
2016-May-23 14:31N 29°47' W 095°06'0 0.0
2016-May-23 13:31N 29°47' W 095°06'0 0.0
2016-May-23 12:31N 29°47' W 095°06'0 0.0
2016-May-23 11:33N 29°47' W 095°06'0 0.1
2016-May-23 10:33N 29°47' W 095°06'0 0.1
2016-May-23 09:30N 29°47' W 095°06'0 0.0
2016-May-23 08:33N 29°47' W 095°06'0 0.0
2016-May-23 07:33N 29°47' W 095°06'0 0.0
2016-May-23 06:32N 29°47' W 095°06'0 0.0
2016-May-23 05:32N 29°47' W 095°06'0 0.0
2016-May-23 04:30N 29°47' W 095°06'0 0.2
2016-May-23 03:33N 29°47' W 095°06'1 0.5
2016-May-23 01:07N 29°47' W 095°04'3 5.0
2016-May-23 00:33N 29°45' W 095°06'0 0.0
2016-May-22 23:33N 29°45' W 095°06'0 0.0
2016-May-22 22:33N 29°45' W 095°06'0 0.0
2016-May-22 21:33N 29°45' W 095°06'0 0.0
2016-May-22 20:33N 29°45' W 095°06'0 0.0
2016-May-22 19:33N 29°45' W 095°06'0 0.0
2016-May-22 18:33N 29°45' W 095°06'0 0.0
2016-May-22 17:32N 29°45' W 095°06'0 0.0
2016-May-22 16:33N 29°45' W 095°06'0 0.0
2016-May-22 15:33N 29°45' W 095°06'2 2.4
2016-May-22 14:32N 29°47' W 095°05'1 1.1
2016-May-22 13:33N 29°47' W 095°06'  
Track history (hours):
 
Tides and Currents Weather Stations Pressure Air Temp Water Temp Dewpoint Dewpoint Depression Visibility Wind Speed Wind Dir Waves Ship Positions

Wes Sellars

Owner: Florida Marine, LLC, Mandeville, LA. More information available from US FCC via Universal Licensing System and Coast Guard Vessel Documentation Center.

Last reported at 2016-Jun-01 04:30 UTC. Time now 2016-Jun-01 05:35 UTC.
Position N 29°47' W 095°04'.

Length 27 m.

Type: Towing. MMSI: 367503760.

Date/timePositionNaut miles runAvg speedWind from/ knotsBaromVisibWave heightAir tempDewpointWater temp
2016-Jun-01 04:30N 29°47' W 095°04'2 2.0
2016-Jun-01 03:32N 29°46' W 095°05'0 0.0
2016-Jun-01 02:33N 29°46' W 095°05'1 0.4
2016-Jun-01 00:21N 29°46' W 095°06'2 2.2
2016-May-31 23:34N 29°46' W 095°04'2 0.5
2016-May-31 20:08N 29°46' W 095°06'0 0.7
2016-May-31 19:33N 29°46' W 095°06'0 0.1
2016-May-31 16:31N 29°46' W 095°05'1 0.6
2016-May-31 15:31N 29°46' W 095°06'0 0.1
2016-May-31 12:29N 29°46' W 095°06'0 0.0
2016-May-31 11:09N 29°46' W 095°06'0 0.0
2016-May-31 10:07N 29°46' W 095°06'0 0.0
2016-May-31 09:27N 29°46' W 095°06'0 0.0
2016-May-31 04:08N 29°46' W 095°06'1 0.2
2016-May-30 22:33N 29°45' W 095°06'4 3.9
2016-May-30 21:33N 29°44' W 095°01'0 0.1
2016-May-30 20:33N 29°44' W 095°01'2 2.0
2016-May-30 19:33N 29°44' W 095°04'3 3.1
2016-May-30 18:33N 29°47' W 095°06'0 0.0
2016-May-30 17:33N 29°47' W 095°06'0 0.0
2016-May-30 16:33N 29°47' W 095°06'0 0.0
2016-May-30 15:33N 29°47' W 095°06'0 0.0
2016-May-30 14:33N 29°47' W 095°06'0 0.0
2016-May-30 13:33N 29°47' W 095°06'0 0.0
2016-May-30 12:33N 29°47' W 095°06'0 0.0
2016-May-30 11:33N 29°47' W 095°06'0 0.0
2016-May-30 10:33N 29°47' W 095°06'0 0.0
2016-May-30 09:33N 29°47' W 095°06'0 0.0
2016-May-30 08:33N 29°47' W 095°06'0 0.0
2016-May-30 07:33N 29°47' W 095°06'0 0.0
2016-May-30 06:33N 29°47' W 095°06'0 0.0
2016-May-30 05:30N 29°47' W 095°06'0 0.0
2016-May-30 04:33N 29°47' W 095°06'0 0.0
2016-May-30 03:32N 29°47' W 095°06'0 0.0
2016-May-30 02:33N 29°47' W 095°06'0 0.0
2016-May-30 01:33N 29°47' W 095°06'0 0.3
2016-May-30 00:16N 29°47' W 095°05'1 1.9
2016-May-29 23:31N 29°46' W 095°05'1 1.5
2016-May-29 22:33N 29°47' W 095°06'0 0.2
2016-May-29 21:32N 29°47' W 095°06'1 1.2
2016-May-29 20:33N 29°47' W 095°04'0 0.5
2016-May-29 19:33N 29°47' W 095°05'0 0.0
2016-May-29 18:33N 29°47' W 095°05'0 0.0
2016-May-29 17:33N 29°47' W 095°05'0 0.0
2016-May-29 16:33N 29°47' W 095°05'1 0.7
2016-May-29 15:34N 29°46' W 095°05'0 0.2
2016-May-29 14:33N 29°46' W 095°05'1 1.2
2016-May-29 13:33N 29°47' W 095°04'1 1.2
2016-May-29 12:33N 29°46' W 095°05'1 1.2
2016-May-29 11:33N 29°47' W 095°04'1 1.4
2016-May-29 10:32N 29°47' W 095°06'0 0.0
2016-May-29 09:33N 29°47' W 095°06'0 0.0
2016-May-29 08:31N 29°47' W 095°06'1 0.2
2016-May-29 01:33N 29°47' W 095°05'0 0.1
2016-May-29 00:32N 29°47' W 095°04'1 1.4
2016-May-28 23:32N 29°46' W 095°05'1 1.4
2016-May-28 22:33N 29°47' W 095°06'0 0.0
2016-May-28 19:29N 29°47' W 095°06'0 0.0
2016-May-28 18:30N 29°47' W 095°06'1 1.3
2016-May-28 17:33N 29°47' W 095°04'1 1.1
2016-May-28 16:33N 29°46' W 095°05'1 1.3
2016-May-28 15:32N 29°47' W 095°05'0 0.2
2016-May-28 14:33N 29°47' W 095°06'0 0.0
2016-May-28 13:34N 29°47' W 095°06'0 0.0
2016-May-28 09:03N 29°47' W 095°06'0 0.1
2016-May-28 08:33N 29°47' W 095°06'0 0.0
2016-May-28 07:31N 29°47' W 095°06'2 0.8
2016-May-28 05:32N 29°47' W 095°04'1 0.4
2016-May-28 02:33N 29°47' W 095°05'0 0.5
2016-May-28 01:33N 29°47' W 095°06'0 0.0
2016-May-28 00:33N 29°47' W 095°06'1 1.0
2016-May-27 23:32N 29°47' W 095°05'1 0.5
2016-May-27 22:12N 29°47' W 095°04'1 1.0
2016-May-27 21:29N 29°47' W 095°05'0 0.0
2016-May-27 20:32N 29°47' W 095°05'0 0.0
2016-May-27 19:31N 29°47' W 095°05'1 1.5
2016-May-27 18:33N 29°45' W 095°06'1 0.9
2016-May-27 17:33N 29°45' W 095°06'0 0.0
2016-May-27 16:33N 29°45' W 095°06'0 0.0
2016-May-27 15:33N 29°45' W 095°06'0 0.0
2016-May-27 14:33N 29°45' W 095°06'0 0.0
2016-May-27 13:33N 29°45' W 095°06'0 0.0
2016-May-27 12:33N 29°45' W 095°06'0 0.0
2016-May-27 11:33N 29°45' W 095°06'0 0.0
2016-May-27 10:33N 29°45' W 095°06'0 0.0
2016-May-27 09:33N 29°45' W 095°06'0 0.0
2016-May-27 08:33N 29°45' W 095°06'0 0.0
2016-May-27 07:33N 29°45' W 095°06'0 0.0
2016-May-27 06:33N 29°45' W 095°06'0 0.0
2016-May-27 05:33N 29°45' W 095°06'0 0.0
2016-May-27 04:33N 29°45' W 095°06'0 0.0
2016-May-27 03:33N 29°45' W 095°06'0 0.0
2016-May-27 02:33N 29°45' W 095°06'0 0.0
2016-May-27 01:33N 29°45' W 095°06'2 2.4
2016-May-27 00:33N 29°47' W 095°05'1 0.9
2016-May-26 23:33N 29°47' W 095°04'0 0.0
2016-May-26 22:33N 29°47' W 095°04'2 2.0
2016-May-26 21:33N 29°46' W 095°05'1 0.2
2016-May-26 17:16N 29°46' W 095°06'0 0.0
2016-May-26 16:15N 29°46' W 095°06'2 3.2
2016-May-26 15:32N 29°47' W 095°04'5 4.8
2016-May-26 14:33N 29°44' W 095°08'3 0.1
2016-May-25 10:33N 29°45' W 095°11'6 5.7
2016-May-25 09:30N 29°46' W 095°05'1 0.7
2016-May-25 08:32N 29°47' W 095°04'0 0.0
2016-May-25 07:17N 29°47' W 095°04'1 1.6
2016-May-25 06:32N 29°47' W 095°06'0 0.0
2016-May-24 17:19N 29°47' W 095°06'0 0.1
2016-May-24 16:32N 29°47' W 095°06'0 0.0
2016-May-24 15:33N 29°47' W 095°06'0 0.0
2016-May-24 14:33N 29°47' W 095°06'0 0.0
2016-May-24 13:31N 29°47' W 095°06'0 0.0
2016-May-24 12:33N 29°47' W 095°06'0 0.0
2016-May-24 11:33N 29°47' W 095°06'0 0.0
2016-May-24 10:33N 29°47' W 095°06'0 0.0
2016-May-24 09:32N 29°47' W 095°06'0 0.0
2016-May-24 08:33N 29°47' W 095°06'0 0.0
2016-May-24 07:33N 29°47' W 095°06'0 0.0
2016-May-24 06:33N 29°47' W 095°06'0 0.0
2016-May-24 05:33N 29°47' W 095°06'0 0.0
2016-May-24 04:33N 29°47' W 095°06'0 0.0
2016-May-24 03:34N 29°47' W 095°06'0 0.0
2016-May-24 02:33N 29°47' W 095°06'0 0.0
2016-May-24 01:33N 29°47' W 095°06'0 0.0
2016-May-24 00:33N 29°47' W 095°06'0 0.0
2016-May-23 23:33N 29°47' W 095°06'0 0.0
2016-May-23 22:33N 29°47' W 095°06'0 0.0
2016-May-23 21:33N 29°47' W 095°06'0 0.0
2016-May-23 20:32N 29°47' W 095°06'0 0.0
2016-May-23 19:33N 29°47' W 095°06'0 0.0
2016-May-23 18:33N 29°47' W 095°06'0 0.0
2016-May-23 17:33N 29°47' W 095°06'0 0.0
2016-May-23 16:19N 29°47' W 095°06'0 0.1
2016-May-23 15:33N 29°47' W 095°06'0 0.0
2016-May-23 14:31N 29°47' W 095°06'0 0.0
2016-May-23 13:31N 29°47' W 095°06'0 0.0
2016-May-23 12:31N 29°47' W 095°06'0 0.0
2016-May-23 11:33N 29°47' W 095°06'0 0.1
2016-May-23 10:33N 29°47' W 095°06'0 0.1
2016-May-23 09:30N 29°47' W 095°06'0 0.0
2016-May-23 08:33N 29°47' W 095°06'0 0.0
2016-May-23 07:33N 29°47' W 095°06'0 0.0
2016-May-23 06:32N 29°47' W 095°06'0 0.0
2016-May-23 05:32N 29°47' W 095°06'0 0.0
2016-May-23 04:30N 29°47' W 095°06'0 0.2
2016-May-23 03:33N 29°47' W 095°06'1 0.5
2016-May-23 01:07N 29°47' W 095°04'3 5.0
2016-May-23 00:33N 29°45' W 095°06'0 0.0
2016-May-22 23:33N 29°45' W 095°06'0 0.0
2016-May-22 22:33N 29°45' W 095°06'0 0.0
2016-May-22 21:33N 29°45' W 095°06'0 0.0
2016-May-22 20:33N 29°45' W 095°06'0 0.0
2016-May-22 19:33N 29°45' W 095°06'0 0.0
2016-May-22 18:33N 29°45' W 095°06'0 0.0
2016-May-22 17:32N 29°45' W 095°06'0 0.0
2016-May-22 16:33N 29°45' W 095°06'0 0.0
2016-May-22 15:33N 29°45' W 095°06'2 2.4
2016-May-22 14:32N 29°47' W 095°05'1 1.1
2016-May-22 13:33N 29°47' W 095°06'  

Dump ship's entire track history